YCL weather

Charlo Airport
Charlo, New Brunswick, Canada

Public forecast

Using degrees Celsius for public forecast. Weather courtesy of forecast.io.

Closest aviation weather report (METAR) to Charlo Airport

Closest report is Bathurst Airport, 32.2 nm (59.7 km) SE. Retrieved 2020/06/02 14:00 UTC (32 minutes ago):

CZBF 021400Z AUTO 31009G19KT 270V340 9SM CLR 14/01 A2979 RMK SLP092 DENSITY ALT 200FT

Closest aviation forecast (TAF) to Charlo Airport

Closest forecast is Bathurst Airport, 32.2 nm (59.7 km) SE. Retrieved 2020/06/02 14:39 UTC (0 seconds ago):

TAF CZBF 021338Z 0214/0302 32012KT P6SM SCT060 BKN240 BECMG 0223/0301 29008KT RMK FCST BASED ON AUTO OBS NXT FCST BY 022000Z